createdAt,value
2024-04-21T00:01:49.673Z,7.19
2024-04-21T00:04:17.070Z,7.25
2024-04-21T00:06:44.414Z,7.28
2024-04-21T00:09:11.844Z,7.34
2024-04-21T00:11:39.211Z,7.34
2024-04-21T00:14:06.571Z,7.38
2024-04-21T00:16:36.694Z,7.19
2024-04-21T00:19:04.647Z,7.02
2024-04-21T00:21:34.265Z,7.09
2024-04-21T00:24:01.615Z,7.16
2024-04-21T00:26:28.957Z,7.08
2024-04-21T00:28:56.537Z,6.90
2024-04-21T00:31:24.008Z,6.72
2024-04-21T00:33:54.097Z,6.74
2024-04-21T00:36:22.021Z,6.81
2024-04-21T00:38:49.549Z,6.86
2024-04-21T00:41:16.904Z,6.88
2024-04-21T00:43:44.254Z,6.89
2024-04-21T00:46:11.702Z,6.94
2024-04-21T00:48:39.209Z,7.00
2024-04-21T00:51:09.230Z,7.01
2024-04-21T00:53:37.707Z,7.01
2024-04-21T00:56:06.319Z,6.94
2024-04-21T00:58:34.581Z,6.89
2024-04-21T01:01:02.230Z,6.76
2024-04-21T01:03:30.134Z,6.56
2024-04-21T01:05:57.498Z,6.41
2024-04-21T01:08:27.577Z,6.41
2024-04-21T01:10:55.007Z,6.41
2024-04-21T01:13:22.571Z,6.44
2024-04-21T01:15:53.889Z,6.56
2024-04-21T01:18:21.777Z,6.45
2024-04-21T01:20:49.365Z,6.34
2024-04-21T01:23:20.474Z,6.33
2024-04-21T01:25:48.206Z,6.41
2024-04-21T01:28:15.825Z,6.40
2024-04-21T01:30:43.238Z,6.34
2024-04-21T01:33:10.663Z,6.26
2024-04-21T01:35:38.095Z,6.30
2024-04-21T01:38:05.576Z,6.32
2024-04-21T01:40:35.696Z,6.43
2024-04-21T01:43:03.210Z,6.42
2024-04-21T01:45:30.606Z,6.37
2024-04-21T01:47:58.207Z,6.47
2024-04-21T01:50:25.770Z,6.60
2024-04-21T01:52:53.106Z,6.60
2024-04-21T01:55:20.622Z,6.61
2024-04-21T01:57:53.118Z,6.52
2024-04-21T02:00:20.593Z,6.40
2024-04-21T02:02:48.073Z,6.32
2024-04-21T02:05:15.942Z,6.26
2024-04-21T02:07:43.296Z,6.28
2024-04-21T02:10:10.741Z,6.37
2024-04-21T02:12:38.074Z,6.32
2024-04-21T02:15:08.822Z,6.38
2024-04-21T02:17:36.188Z,6.41
2024-04-21T02:20:03.960Z,6.45
2024-04-21T02:22:33.175Z,6.52
2024-04-21T02:25:00.625Z,6.40
2024-04-21T02:27:28.076Z,6.30
2024-04-21T02:32:43.113Z,6.29
2024-04-21T02:35:10.439Z,6.30
2024-04-21T02:37:37.980Z,6.32
2024-04-21T02:40:05.992Z,6.28
2024-04-21T02:42:33.348Z,6.10
2024-04-21T02:45:00.835Z,6.12
2024-04-21T02:47:28.209Z,6.12
2024-04-21T02:49:58.262Z,6.08
2024-04-21T02:52:25.704Z,6.06
2024-04-21T02:54:53.132Z,6.06
2024-04-21T02:57:20.492Z,5.87
2024-04-21T02:59:47.912Z,5.66
2024-04-21T03:02:15.238Z,5.52
2024-04-21T03:04:42.633Z,5.43
2024-04-21T03:07:12.743Z,5.40
2024-04-21T03:09:42.114Z,5.45
2024-04-21T03:12:09.779Z,5.49
2024-04-21T03:14:37.182Z,5.46
2024-04-21T03:17:05.053Z,5.31
2024-04-21T03:19:32.434Z,5.39
2024-04-21T03:22:00.947Z,5.44
2024-04-21T03:24:30.925Z,5.42
2024-04-21T03:26:58.919Z,5.47
2024-04-21T03:29:26.252Z,5.49
2024-04-21T03:31:53.505Z,5.52
2024-04-21T03:34:20.872Z,5.45
2024-04-21T03:36:49.063Z,5.44
2024-04-21T03:39:16.584Z,5.32
2024-04-21T03:41:46.772Z,5.19
2024-04-21T03:44:14.159Z,5.21
2024-04-21T03:46:41.478Z,5.24
2024-04-21T03:49:08.950Z,5.28
2024-04-21T03:51:36.240Z,5.28
2024-04-21T03:54:03.739Z,5.22
2024-04-21T03:56:31.102Z,5.31
2024-04-21T03:59:01.122Z,5.13
2024-04-21T04:01:28.760Z,5.14
2024-04-21T04:03:56.297Z,5.23
2024-04-21T04:06:25.265Z,5.31
2024-04-21T04:08:52.742Z,5.34
2024-04-21T04:11:20.130Z,5.36
2024-04-21T04:13:47.627Z,5.31
2024-04-21T04:16:17.750Z,5.31
2024-04-21T04:18:45.050Z,5.33
2024-04-21T04:21:12.599Z,5.28
2024-04-21T04:23:39.871Z,5.30
2024-04-21T04:26:10.557Z,5.26
2024-04-21T04:28:39.789Z,5.30
2024-04-21T04:31:07.484Z,5.32
2024-04-21T04:33:37.683Z,5.43
2024-04-21T04:36:05.919Z,5.57
2024-04-21T04:38:51.873Z,5.76
2024-04-21T04:41:19.302Z,5.92
2024-04-21T04:43:46.601Z,5.95
2024-04-21T04:46:13.979Z,6.03
2024-04-21T04:48:44.030Z,6.18
2024-04-21T04:51:11.855Z,6.35
2024-04-21T04:53:40.899Z,6.51
2024-04-21T04:56:08.928Z,6.64
2024-04-21T04:58:36.252Z,6.74
2024-04-21T05:01:03.900Z,6.92
2024-04-21T05:03:31.348Z,7.07
2024-04-21T05:06:01.346Z,7.19
2024-04-21T05:08:28.768Z,7.28
2024-04-21T05:10:56.097Z,7.33
2024-04-21T05:13:23.470Z,7.40
2024-04-21T05:15:50.988Z,7.50
2024-04-21T05:18:18.534Z,7.57
2024-04-21T05:20:46.027Z,7.62
2024-04-21T05:23:16.132Z,7.67
2024-04-21T05:25:43.479Z,7.71
2024-04-21T05:28:10.830Z,7.82
2024-04-21T05:30:39.005Z,7.97
2024-04-21T05:33:06.379Z,8.07
2024-04-21T05:35:33.687Z,8.16
2024-04-21T05:38:01.233Z,8.25
2024-04-21T05:40:31.408Z,8.36
2024-04-21T05:42:58.789Z,8.38
2024-04-21T05:45:26.183Z,8.49
2024-04-21T05:47:53.817Z,8.58
2024-04-21T05:50:21.410Z,8.67
2024-04-21T05:52:48.817Z,8.79
2024-04-21T05:55:16.376Z,8.88
2024-04-21T05:57:46.420Z,8.93
2024-04-21T06:00:14.050Z,9.01
2024-04-21T06:02:41.590Z,9.17
2024-04-21T06:05:08.967Z,9.30
2024-04-21T06:07:36.487Z,9.38
2024-04-21T06:10:04.058Z,9.53
2024-04-21T06:12:32.515Z,9.69
2024-04-21T06:15:02.538Z,9.90
2024-04-21T06:17:30.110Z,10.08
2024-04-21T06:19:57.395Z,10.29
2024-04-21T06:22:25.212Z,10.45
2024-04-21T06:24:52.575Z,10.51
2024-04-21T06:27:20.164Z,10.54
2024-04-21T06:29:47.690Z,10.60
2024-04-21T06:32:17.733Z,10.73
2024-04-21T06:34:45.016Z,10.77
2024-04-21T06:37:12.423Z,10.82
2024-04-21T06:39:39.779Z,10.89
2024-04-21T06:42:07.178Z,10.79
2024-04-21T06:44:34.750Z,10.83
2024-04-21T06:47:02.213Z,10.96
2024-04-21T06:49:38.206Z,11.05
2024-04-21T06:52:06.226Z,11.15
2024-04-21T06:54:33.761Z,11.19
2024-04-21T06:57:01.183Z,11.18
2024-04-21T06:59:28.947Z,11.27
2024-04-21T07:01:56.394Z,11.28
2024-04-21T07:04:24.065Z,11.28
2024-04-21T07:06:54.092Z,11.32
2024-04-21T07:09:21.476Z,11.30
2024-04-21T07:11:48.848Z,11.32
2024-04-21T07:14:20.837Z,11.30
2024-04-21T07:16:48.882Z,11.30
2024-04-21T07:19:16.320Z,11.36
2024-04-21T07:21:43.769Z,11.39
2024-04-21T07:24:13.748Z,11.45
2024-04-21T07:26:41.220Z,11.61
2024-04-21T07:29:08.626Z,11.66
2024-04-21T07:31:35.991Z,11.80
2024-04-21T07:34:03.495Z,11.80
2024-04-21T07:36:30.903Z,11.96
2024-04-21T07:38:58.250Z,12.00
2024-04-21T07:41:29.034Z,12.12
2024-04-21T07:43:56.319Z,12.19
2024-04-21T07:46:23.679Z,12.14
2024-04-21T07:48:51.085Z,12.09
2024-04-21T07:51:18.375Z,12.09
2024-04-21T07:53:45.722Z,12.04
2024-04-21T07:56:13.346Z,12.08
2024-04-21T07:58:43.427Z,12.03
2024-04-21T08:01:10.856Z,12.02
2024-04-21T08:03:38.570Z,11.97
2024-04-21T08:06:06.098Z,11.91
2024-04-21T08:08:33.537Z,11.79
2024-04-21T08:11:04.953Z,11.87
2024-04-21T08:13:33.164Z,11.65
2024-04-21T08:16:04.131Z,11.60
2024-04-21T08:18:31.728Z,11.73
2024-04-21T08:21:00.276Z,11.76
2024-04-21T08:23:30.251Z,11.79
2024-04-21T08:26:01.837Z,11.75
2024-04-21T08:28:29.426Z,11.74
2024-04-21T08:30:57.278Z,11.71
2024-04-21T08:33:28.426Z,11.55
2024-04-21T08:35:56.983Z,11.57
2024-04-21T08:38:24.869Z,11.55
2024-04-21T08:40:52.870Z,11.55
2024-04-21T08:43:22.912Z,11.55
2024-04-21T08:45:51.499Z,11.56
2024-04-21T08:48:19.357Z,11.61
2024-04-21T08:50:51.118Z,11.63
2024-04-21T08:53:19.557Z,11.62
2024-04-21T08:55:48.276Z,11.56
2024-04-21T08:58:16.891Z,11.55
2024-04-21T09:00:44.721Z,11.58
2024-04-21T09:03:12.204Z,11.65
2024-04-21T09:05:39.746Z,11.87
2024-04-21T09:08:10.383Z,12.18
2024-04-21T09:10:37.866Z,12.36
2024-04-21T09:13:08.048Z,12.48
2024-04-21T09:15:35.748Z,12.65
2024-04-21T09:18:03.385Z,12.63
2024-04-21T09:20:30.960Z,12.33
2024-04-21T09:22:58.235Z,12.33
2024-04-21T09:25:28.471Z,12.53
2024-04-21T09:27:56.667Z,12.61
2024-04-21T09:30:24.082Z,12.23
2024-04-21T09:32:52.271Z,12.34
2024-04-21T09:35:19.578Z,12.21
2024-04-21T09:37:47.403Z,12.15
2024-04-21T09:40:16.595Z,12.41
2024-04-21T09:42:48.991Z,12.37
2024-04-21T09:45:18.325Z,12.44
2024-04-21T09:47:46.619Z,12.52
2024-04-21T09:50:14.185Z,12.67
2024-04-21T09:52:41.770Z,12.65
2024-04-21T09:55:09.460Z,12.72
2024-04-21T09:57:38.333Z,12.97
2024-04-21T10:00:10.204Z,13.16
2024-04-21T10:02:39.215Z,13.19
2024-04-21T10:05:08.191Z,13.22
2024-04-21T10:07:37.878Z,13.24
2024-04-21T10:10:09.724Z,13.25
2024-04-21T10:12:37.997Z,13.27
2024-04-21T10:15:08.188Z,13.31
2024-04-21T10:17:35.611Z,13.30
2024-04-21T10:20:05.485Z,13.31
2024-04-21T10:22:33.115Z,13.29
2024-04-21T10:25:00.821Z,13.30
2024-04-21T10:27:28.199Z,13.28
2024-04-21T10:29:55.630Z,13.07
2024-04-21T10:32:29.245Z,12.61
2024-04-21T10:34:57.906Z,12.48
2024-04-21T10:37:26.416Z,12.57
2024-04-21T10:40:00.671Z,12.42
2024-04-21T10:42:28.067Z,12.24
2024-04-21T10:44:55.694Z,12.10
2024-04-21T10:47:23.217Z,12.17
2024-04-21T10:49:54.443Z,12.11
2024-04-21T10:52:22.102Z,11.80
2024-04-21T10:54:49.532Z,11.70
2024-04-21T10:57:16.945Z,11.92
2024-04-21T10:59:44.266Z,11.92
2024-04-21T11:02:11.627Z,11.96
2024-04-21T11:04:39.494Z,11.97
2024-04-21T11:07:09.576Z,11.88
2024-04-21T11:09:36.904Z,11.75
2024-04-21T11:12:04.900Z,11.48
2024-04-21T11:14:32.197Z,11.47
2024-04-21T11:16:59.754Z,11.62
2024-04-21T11:19:27.257Z,11.78
2024-04-21T11:21:54.674Z,11.87
2024-04-21T11:24:24.859Z,11.84
2024-04-21T11:26:52.310Z,11.90
2024-04-21T11:29:19.608Z,11.93
2024-04-21T11:31:47.166Z,11.97
2024-04-21T11:34:14.793Z,11.99
2024-04-21T11:36:42.400Z,12.03
2024-04-21T11:39:09.961Z,12.08
2024-04-21T11:41:40.210Z,12.18
2024-04-21T11:44:09.839Z,12.21
2024-04-21T11:46:37.201Z,12.22
2024-04-21T11:49:04.634Z,12.21
2024-04-21T11:51:32.110Z,11.93
2024-04-21T11:53:59.414Z,11.81
2024-04-21T11:56:26.827Z,11.87
2024-04-21T11:58:56.944Z,11.83
2024-04-21T12:01:32.421Z,11.79
2024-04-21T12:04:07.751Z,11.47
2024-04-21T12:06:35.101Z,11.28
2024-04-21T12:09:06.985Z,10.96
2024-04-21T12:11:34.430Z,10.42
2024-04-21T12:14:34.079Z,10.08
2024-04-21T12:17:01.845Z,9.93
2024-04-21T12:19:29.771Z,9.90
2024-04-21T12:21:57.218Z,9.77
2024-04-21T12:24:24.557Z,9.61
2024-04-21T12:26:51.928Z,9.64
2024-04-21T12:29:22.838Z,9.69
2024-04-21T12:31:50.904Z,9.82
2024-04-21T12:34:18.571Z,9.89
2024-04-21T12:36:45.918Z,10.20
2024-04-21T12:39:13.259Z,10.41
2024-04-21T12:41:40.957Z,10.62
2024-04-21T12:44:08.292Z,10.79
2024-04-21T12:46:38.346Z,10.86
2024-04-21T12:49:06.002Z,10.90
2024-04-21T12:51:33.366Z,11.05
2024-04-21T12:54:00.775Z,11.21
2024-04-21T12:56:28.104Z,11.36
2024-04-21T12:58:55.566Z,11.46
2024-04-21T13:01:22.943Z,11.58
2024-04-21T13:03:53.077Z,11.70
2024-04-21T13:06:20.368Z,11.75
2024-04-21T13:08:47.664Z,11.82
2024-04-21T13:11:15.208Z,11.86
2024-04-21T13:13:42.677Z,11.92
2024-04-21T13:16:10.020Z,11.93
2024-04-21T13:18:37.504Z,11.94
2024-04-21T13:21:07.665Z,11.94
2024-04-21T13:23:35.062Z,11.97
2024-04-21T13:26:02.450Z,11.98
2024-04-21T13:28:32.754Z,12.03
2024-04-21T13:31:00.872Z,12.00
2024-04-21T13:33:28.427Z,11.97
2024-04-21T13:35:56.027Z,11.99
2024-04-21T13:38:26.144Z,11.97
2024-04-21T13:40:57.622Z,11.91
2024-04-21T13:43:25.166Z,11.79
2024-04-21T13:45:52.586Z,11.69
2024-04-21T13:48:20.093Z,11.69
2024-04-21T13:50:47.549Z,11.71
2024-04-21T13:53:14.973Z,11.71
2024-04-21T13:55:45.373Z,11.72
2024-04-21T13:58:12.716Z,11.71
2024-04-21T14:00:40.195Z,11.65
2024-04-21T14:03:07.534Z,11.60
2024-04-21T14:05:34.837Z,11.59
2024-04-21T14:08:02.268Z,11.49
2024-04-21T14:10:29.655Z,11.43
2024-04-21T14:12:59.732Z,11.33
2024-04-21T14:15:27.164Z,11.29
2024-04-21T14:17:54.567Z,11.23
2024-04-21T14:20:21.899Z,11.18
2024-04-21T14:22:49.250Z,11.17
2024-04-21T14:25:16.828Z,11.11
2024-04-21T14:27:44.250Z,11.09
2024-04-21T14:30:14.584Z,11.03
2024-04-21T14:32:41.974Z,11.01
2024-04-21T14:35:09.475Z,10.93
2024-04-21T14:37:36.941Z,10.88
2024-04-21T14:40:04.736Z,10.80
2024-04-21T14:42:32.093Z,10.67
2024-04-21T14:45:05.103Z,10.57
2024-04-21T14:47:37.854Z,10.48
2024-04-21T14:50:06.001Z,10.26
2024-04-21T14:52:38.069Z,10.22
2024-04-21T14:55:07.938Z,10.24
2024-04-21T14:57:35.552Z,10.23
2024-04-21T15:00:03.128Z,10.08
2024-04-21T15:02:30.799Z,9.83
2024-04-21T15:05:01.016Z,9.87
2024-04-21T15:07:28.515Z,9.96
2024-04-21T15:09:55.940Z,9.92
2024-04-21T15:12:23.338Z,9.77
2024-04-21T15:14:50.940Z,9.75
2024-04-21T15:17:18.372Z,9.82
2024-04-21T15:19:46.039Z,9.87
2024-04-21T15:22:16.240Z,9.95
2024-04-21T15:24:43.790Z,10.02
2024-04-21T15:27:11.116Z,10.06
2024-04-21T15:29:38.383Z,10.10
2024-04-21T15:32:06.347Z,10.10
2024-04-21T15:34:34.120Z,9.99
2024-04-21T15:37:04.350Z,9.99
2024-04-21T15:39:36.307Z,9.99
2024-04-21T15:42:04.367Z,9.98
2024-04-21T15:44:31.800Z,9.95
2024-04-21T15:46:59.134Z,9.86
2024-04-21T15:49:26.559Z,9.64
2024-04-21T15:51:53.991Z,9.46
2024-04-21T15:54:21.346Z,9.23
2024-04-21T15:56:51.435Z,9.13
2024-04-21T15:59:18.717Z,9.17
2024-04-21T16:01:46.054Z,9.18
2024-04-21T16:04:13.698Z,9.29
2024-04-21T16:06:41.602Z,9.39
2024-04-21T16:09:09.355Z,9.41
2024-04-21T16:11:36.693Z,9.40
2024-04-21T16:14:06.767Z,9.38
2024-04-21T16:16:34.364Z,9.34
2024-04-21T16:19:02.048Z,9.31
2024-04-21T16:21:29.412Z,9.33
2024-04-21T16:23:56.726Z,9.36
2024-04-21T16:26:24.105Z,9.40
2024-04-21T16:28:51.560Z,9.42
2024-04-21T16:31:21.850Z,9.42
2024-04-21T16:33:50.908Z,9.39
2024-04-21T16:36:23.381Z,9.35
2024-04-21T16:38:51.494Z,9.31
2024-04-21T16:41:19.431Z,9.24
2024-04-21T16:43:48.056Z,9.18
2024-04-21T16:46:24.071Z,9.20
2024-04-21T16:48:53.479Z,9.16
2024-04-21T16:51:21.432Z,9.13
2024-04-21T16:53:49.382Z,9.00
2024-04-21T16:56:17.340Z,8.94
2024-04-21T16:58:45.276Z,8.92
2024-04-21T17:01:16.104Z,8.89
2024-04-21T17:03:47.023Z,8.86
2024-04-21T17:06:19.605Z,8.82
2024-04-21T17:08:47.567Z,8.79
2024-04-21T17:11:15.663Z,8.70
2024-04-21T17:13:44.647Z,8.63
2024-04-21T17:16:12.287Z,8.52
2024-04-21T17:18:40.876Z,8.52
2024-04-21T17:21:11.862Z,8.51
2024-04-21T17:23:39.220Z,8.43
2024-04-21T17:26:06.582Z,8.37
2024-04-21T17:28:34.046Z,8.23
2024-04-21T17:31:01.765Z,8.13
2024-04-21T17:33:29.263Z,7.94
2024-04-21T17:35:56.820Z,7.82
2024-04-21T17:38:26.920Z,7.73
2024-04-21T17:40:55.025Z,7.52
2024-04-21T17:43:22.415Z,7.29
2024-04-21T17:45:49.758Z,7.14
2024-04-21T17:48:17.606Z,7.14
2024-04-21T17:50:45.359Z,7.22
2024-04-21T17:53:12.764Z,7.18
2024-04-21T17:55:42.966Z,7.05
2024-04-21T17:58:10.398Z,6.99
2024-04-21T18:00:39.204Z,6.94
2024-04-21T18:03:06.649Z,6.90
2024-04-21T18:05:36.602Z,6.85
2024-04-21T18:08:04.419Z,6.74
2024-04-21T18:10:31.845Z,6.55
2024-04-21T18:13:01.917Z,6.57
2024-04-21T18:15:29.504Z,6.59
2024-04-21T18:17:57.938Z,6.57
2024-04-21T18:20:25.278Z,6.46
2024-04-21T18:22:53.481Z,6.55
2024-04-21T18:25:21.268Z,6.69
2024-04-21T18:27:48.585Z,6.65
2024-04-21T18:30:18.742Z,6.60
2024-04-21T18:32:47.579Z,6.67
2024-04-21T18:35:15.105Z,6.64
2024-04-21T18:37:42.840Z,6.69
2024-04-21T18:40:10.567Z,6.82
2024-04-21T18:42:37.878Z,6.77
2024-04-21T18:45:06.052Z,6.86
2024-04-21T18:47:36.132Z,6.89
2024-04-21T18:50:03.729Z,6.82
2024-04-21T18:52:33.483Z,6.84
2024-04-21T18:55:02.279Z,6.78
2024-04-21T18:57:29.678Z,6.71
2024-04-21T18:59:57.143Z,6.67
2024-04-21T19:02:24.484Z,6.70
2024-04-21T19:04:54.539Z,6.80
2024-04-21T19:07:21.906Z,7.12
2024-04-21T19:09:49.942Z,7.28
2024-04-21T19:12:17.879Z,7.11
2024-04-21T19:14:45.914Z,6.90
2024-04-21T19:17:13.943Z,6.73
2024-04-21T19:19:41.849Z,6.58
2024-04-21T19:22:12.563Z,6.44
2024-04-21T19:24:39.999Z,6.36
2024-04-21T19:27:07.353Z,6.23
2024-04-21T19:29:36.036Z,6.15
2024-04-21T19:32:03.225Z,6.09
2024-04-21T19:34:30.616Z,5.99
2024-04-21T19:36:57.999Z,5.93
2024-04-21T19:39:28.010Z,5.94
2024-04-21T19:41:55.379Z,5.96
2024-04-21T19:44:22.710Z,5.84
2024-04-21T19:46:49.990Z,5.85
2024-04-21T19:49:17.473Z,5.87
2024-04-21T19:51:44.806Z,5.80
2024-04-21T19:54:16.670Z,5.82
2024-04-21T19:56:56.174Z,5.84
2024-04-21T19:59:24.033Z,5.87
2024-04-21T20:01:51.491Z,5.84
2024-04-21T20:04:19.150Z,5.84
2024-04-21T20:06:46.685Z,5.84
2024-04-21T20:09:14.109Z,5.85
2024-04-21T20:11:41.654Z,5.85
2024-04-21T20:14:11.654Z,5.87
2024-04-21T20:16:57.798Z,5.95
2024-04-21T20:19:25.307Z,6.04
2024-04-21T20:21:52.596Z,6.11
2024-04-21T20:24:19.950Z,6.15
2024-04-21T20:26:50.295Z,6.16
2024-04-21T20:29:21.636Z,6.18
2024-04-21T20:31:49.750Z,6.19
2024-04-21T20:34:17.123Z,6.16
2024-04-21T20:36:44.831Z,6.15
2024-04-21T20:39:12.256Z,6.13
2024-04-21T20:41:42.226Z,6.15
2024-04-21T20:44:09.578Z,6.18
2024-04-21T20:46:39.709Z,6.21
2024-04-21T20:49:07.338Z,6.24
2024-04-21T20:51:34.927Z,6.25
2024-04-21T20:54:02.339Z,6.21
2024-04-21T20:56:29.632Z,6.23
2024-04-21T20:58:58.314Z,6.26
2024-04-21T21:01:25.983Z,6.26
2024-04-21T21:03:56.044Z,6.16
2024-04-21T21:06:23.646Z,6.12
2024-04-21T21:08:51.046Z,6.07
2024-04-21T21:11:18.491Z,6.01
2024-04-21T21:13:46.055Z,5.95
2024-04-21T21:16:13.744Z,5.95
2024-04-21T21:18:41.185Z,5.93
2024-04-21T21:21:11.319Z,5.92
2024-04-21T21:23:38.866Z,5.89
2024-04-21T21:26:06.260Z,5.95
2024-04-21T21:28:33.964Z,5.92
2024-04-21T21:31:02.785Z,5.89
2024-04-21T21:33:30.313Z,5.87
2024-04-21T21:35:57.728Z,5.90
2024-04-21T21:38:30.078Z,5.93
2024-04-21T21:40:57.853Z,5.90
2024-04-21T21:43:25.811Z,5.95
2024-04-21T21:45:53.429Z,5.98
2024-04-21T21:48:21.014Z,6.01
2024-04-21T21:50:48.385Z,6.11
2024-04-21T21:53:15.837Z,6.05
2024-04-21T21:55:46.098Z,6.07
2024-04-21T21:58:13.516Z,6.07
2024-04-21T22:00:41.089Z,6.09
2024-04-21T22:03:09.881Z,6.13
2024-04-21T22:05:37.578Z,6.12
2024-04-21T22:08:05.540Z,6.13
2024-04-21T22:10:32.948Z,6.13
2024-04-21T22:13:03.099Z,6.13
2024-04-21T22:15:30.520Z,6.11
2024-04-21T22:17:58.518Z,6.11
2024-04-21T22:20:26.108Z,6.16
2024-04-21T22:22:53.576Z,6.22
2024-04-21T22:25:21.068Z,6.24
2024-04-21T22:27:50.119Z,6.27
2024-04-21T22:30:20.211Z,6.36
2024-04-21T22:32:48.286Z,6.29
2024-04-21T22:35:16.004Z,6.27
2024-04-21T22:37:43.530Z,6.22
2024-04-21T22:40:11.343Z,6.21
2024-04-21T22:42:41.778Z,6.20
2024-04-21T22:45:10.629Z,6.22
2024-04-21T22:47:40.823Z,6.29
2024-04-21T22:50:08.551Z,6.31
2024-04-21T22:52:36.209Z,6.37
2024-04-21T22:55:04.121Z,6.49
2024-04-21T22:57:31.751Z,6.51
2024-04-21T22:59:59.195Z,6.59
2024-04-21T23:02:26.485Z,6.61
2024-04-21T23:04:56.607Z,6.64
2024-04-21T23:07:24.038Z,6.65
2024-04-21T23:09:51.416Z,6.59
2024-04-21T23:12:18.831Z,6.57
2024-04-21T23:14:46.210Z,6.53
2024-04-21T23:17:13.640Z,6.44
2024-04-21T23:19:41.274Z,6.32
2024-04-21T23:22:11.675Z,6.27
2024-04-21T23:24:39.134Z,6.20
2024-04-21T23:27:06.689Z,6.18
2024-04-21T23:29:34.138Z,6.14
2024-04-21T23:32:01.487Z,6.05
2024-04-21T23:34:29.054Z,6.03
2024-04-21T23:36:56.308Z,6.05
2024-04-21T23:39:26.431Z,6.05
2024-04-21T23:41:53.881Z,6.03
2024-04-21T23:44:21.399Z,6.04
2024-04-21T23:46:48.836Z,6.15
2024-04-21T23:49:17.277Z,6.12
2024-04-21T23:51:45.162Z,6.13
2024-04-21T23:54:12.542Z,6.26
2024-04-21T23:56:42.719Z,6.30
2024-04-21T23:59:10.106Z,6.33
